sensor_id;sensor_type;location;lat;lon;timestamp;P1;durP1;ratioP1;P2;durP2;ratioP2
19535;SDS011;9913;51.168;4.124;2023-08-08T00:01:54;6.80;;;3.55;;
19535;SDS011;9913;51.168;4.124;2023-08-08T00:04:23;7.63;;;3.50;;
19535;SDS011;9913;51.168;4.124;2023-08-08T00:06:51;8.85;;;3.67;;
19535;SDS011;9913;51.168;4.124;2023-08-08T00:09:21;8.27;;;2.67;;
19535;SDS011;9913;51.168;4.124;2023-08-08T00:11:49;6.05;;;3.42;;
19535;SDS011;9913;51.168;4.124;2023-08-08T00:14:17;7.87;;;3.83;;
19535;SDS011;9913;51.168;4.124;2023-08-08T00:16:46;6.50;;;3.20;;
19535;SDS011;9913;51.168;4.124;2023-08-08T00:19:14;7.15;;;3.47;;
19535;SDS011;9913;51.168;4.124;2023-08-08T00:21:42;7.25;;;3.72;;
19535;SDS011;9913;51.168;4.124;2023-08-08T00:24:11;10.53;;;3.93;;
19535;SDS011;9913;51.168;4.124;2023-08-08T00:26:40;9.97;;;3.97;;
19535;SDS011;9913;51.168;4.124;2023-08-08T00:29:09;8.40;;;3.23;;
19535;SDS011;9913;51.168;4.124;2023-08-08T00:31:37;9.03;;;4.03;;
19535;SDS011;9913;51.168;4.124;2023-08-08T00:34:05;8.47;;;3.47;;
19535;SDS011;9913;51.168;4.124;2023-08-08T00:36:34;9.67;;;3.50;;
19535;SDS011;9913;51.168;4.124;2023-08-08T00:39:02;8.93;;;3.97;;
19535;SDS011;9913;51.168;4.124;2023-08-08T00:41:30;9.73;;;4.03;;
19535;SDS011;9913;51.168;4.124;2023-08-08T00:44:00;12.17;;;4.47;;
19535;SDS011;9913;51.168;4.124;2023-08-08T00:46:28;6.60;;;3.30;;
19535;SDS011;9913;51.168;4.124;2023-08-08T00:48:57;8.43;;;4.23;;
19535;SDS011;9913;51.168;4.124;2023-08-08T00:51:26;10.97;;;4.30;;
19535;SDS011;9913;51.168;4.124;2023-08-08T00:53:54;15.23;;;4.65;;
19535;SDS011;9913;51.168;4.124;2023-08-08T00:56:24;10.52;;;4.25;;
19535;SDS011;9913;51.168;4.124;2023-08-08T00:58:54;11.30;;;4.63;;
19535;SDS011;9913;51.168;4.124;2023-08-08T01:01:23;9.20;;;3.83;;
19535;SDS011;9913;51.168;4.124;2023-08-08T01:03:52;8.90;;;3.70;;
19535;SDS011;9913;51.168;4.124;2023-08-08T01:06:23;10.37;;;3.90;;
19535;SDS011;9913;51.168;4.124;2023-08-08T01:08:58;8.87;;;3.53;;
19535;SDS011;9913;51.168;4.124;2023-08-08T01:11:31;9.50;;;3.67;;
19535;SDS011;9913;51.168;4.124;2023-08-08T01:14:02;10.27;;;4.10;;
19535;SDS011;9913;51.168;4.124;2023-08-08T01:16:34;10.37;;;4.57;;
19535;SDS011;9913;51.168;4.124;2023-08-08T01:19:03;9.43;;;3.83;;
19535;SDS011;9913;51.168;4.124;2023-08-08T01:21:34;8.53;;;4.40;;
19535;SDS011;9913;51.168;4.124;2023-08-08T01:24:14;9.73;;;4.17;;
19535;SDS011;9913;51.168;4.124;2023-08-08T01:26:45;9.77;;;4.73;;
19535;SDS011;9913;51.168;4.124;2023-08-08T01:29:14;10.15;;;4.78;;
19535;SDS011;9913;51.168;4.124;2023-08-08T01:31:42;10.40;;;4.60;;
19535;SDS011;9913;51.168;4.124;2023-08-08T01:34:10;10.53;;;4.33;;
19535;SDS011;9913;51.168;4.124;2023-08-08T01:36:42;11.37;;;4.10;;
19535;SDS011;9913;51.168;4.124;2023-08-08T01:39:25;10.67;;;4.93;;
19535;SDS011;9913;51.168;4.124;2023-08-08T01:41:55;6.70;;;4.27;;
19535;SDS011;9913;51.168;4.124;2023-08-08T01:44:25;9.73;;;3.77;;
19535;SDS011;9913;51.168;4.124;2023-08-08T01:46:54;9.37;;;4.07;;
19535;SDS011;9913;51.168;4.124;2023-08-08T01:49:23;15.37;;;5.60;;
19535;SDS011;9913;51.168;4.124;2023-08-08T01:51:51;12.50;;;4.67;;
19535;SDS011;9913;51.168;4.124;2023-08-08T01:54:20;9.77;;;4.50;;
19535;SDS011;9913;51.168;4.124;2023-08-08T01:56:51;9.87;;;4.30;;
19535;SDS011;9913;51.168;4.124;2023-08-08T01:59:19;12.17;;;4.47;;
19535;SDS011;9913;51.168;4.124;2023-08-08T02:01:48;13.33;;;4.60;;
19535;SDS011;9913;51.168;4.124;2023-08-08T02:04:16;10.13;;;4.40;;
19535;SDS011;9913;51.168;4.124;2023-08-08T02:06:45;7.57;;;4.57;;
19535;SDS011;9913;51.168;4.124;2023-08-08T02:09:13;8.13;;;4.20;;
19535;SDS011;9913;51.168;4.124;2023-08-08T02:11:42;11.47;;;5.33;;
19535;SDS011;9913;51.168;4.124;2023-08-08T02:14:12;12.20;;;4.10;;
19535;SDS011;9913;51.168;4.124;2023-08-08T02:16:40;9.37;;;4.17;;
19535;SDS011;9913;51.168;4.124;2023-08-08T02:19:09;12.03;;;4.67;;
19535;SDS011;9913;51.168;4.124;2023-08-08T02:21:38;14.33;;;5.30;;
19535;SDS011;9913;51.168;4.124;2023-08-08T02:24:06;12.73;;;5.70;;
19535;SDS011;9913;51.168;4.124;2023-08-08T02:26:35;11.70;;;5.30;;
19535;SDS011;9913;51.168;4.124;2023-08-08T02:29:07;10.90;;;4.97;;
19535;SDS011;9913;51.168;4.124;2023-08-08T02:31:37;13.23;;;5.00;;
19535;SDS011;9913;51.168;4.124;2023-08-08T02:34:06;11.57;;;5.23;;
19535;SDS011;9913;51.168;4.124;2023-08-08T02:36:34;9.93;;;4.93;;
19535;SDS011;9913;51.168;4.124;2023-08-08T02:39:02;11.30;;;4.80;;
19535;SDS011;9913;51.168;4.124;2023-08-08T02:41:31;14.63;;;4.67;;
19535;SDS011;9913;51.168;4.124;2023-08-08T02:43:59;14.93;;;5.17;;
19535;SDS011;9913;51.168;4.124;2023-08-08T02:46:28;10.60;;;5.37;;
19535;SDS011;9913;51.168;4.124;2023-08-08T02:48:57;11.37;;;5.47;;
19535;SDS011;9913;51.168;4.124;2023-08-08T02:51:26;6.67;;;4.17;;
19535;SDS011;9913;51.168;4.124;2023-08-08T02:53:55;8.90;;;4.37;;
19535;SDS011;9913;51.168;4.124;2023-08-08T02:56:23;12.80;;;4.87;;
19535;SDS011;9913;51.168;4.124;2023-08-08T02:58:53;12.73;;;4.80;;
19535;SDS011;9913;51.168;4.124;2023-08-08T03:01:21;9.33;;;4.13;;
19535;SDS011;9913;51.168;4.124;2023-08-08T03:03:50;11.00;;;4.87;;
19535;SDS011;9913;51.168;4.124;2023-08-08T03:06:22;15.70;;;6.53;;
19535;SDS011;9913;51.168;4.124;2023-08-08T03:08:51;9.23;;;4.50;;
19535;SDS011;9913;51.168;4.124;2023-08-08T03:11:20;14.80;;;4.70;;
19535;SDS011;9913;51.168;4.124;2023-08-08T03:13:48;14.00;;;5.33;;
19535;SDS011;9913;51.168;4.124;2023-08-08T03:16:15;12.20;;;5.40;;
19535;SDS011;9913;51.168;4.124;2023-08-08T03:18:44;15.57;;;5.37;;
19535;SDS011;9913;51.168;4.124;2023-08-08T03:21:14;11.33;;;4.40;;
19535;SDS011;9913;51.168;4.124;2023-08-08T03:23:44;15.33;;;5.20;;
19535;SDS011;9913;51.168;4.124;2023-08-08T03:26:12;10.00;;;4.67;;
19535;SDS011;9913;51.168;4.124;2023-08-08T03:28:43;13.30;;;5.00;;
19535;SDS011;9913;51.168;4.124;2023-08-08T03:31:11;10.83;;;5.10;;
19535;SDS011;9913;51.168;4.124;2023-08-08T03:33:41;10.53;;;5.23;;
19535;SDS011;9913;51.168;4.124;2023-08-08T03:36:10;14.93;;;5.00;;
19535;SDS011;9913;51.168;4.124;2023-08-08T03:38:39;13.37;;;5.33;;
19535;SDS011;9913;51.168;4.124;2023-08-08T03:41:12;15.00;;;5.03;;
19535;SDS011;9913;51.168;4.124;2023-08-08T03:43:41;14.13;;;5.70;;
19535;SDS011;9913;51.168;4.124;2023-08-08T03:46:09;10.73;;;5.37;;
19535;SDS011;9913;51.168;4.124;2023-08-08T03:48:38;12.03;;;5.43;;
19535;SDS011;9913;51.168;4.124;2023-08-08T03:51:07;11.97;;;5.07;;
19535;SDS011;9913;51.168;4.124;2023-08-08T03:53:37;10.83;;;5.43;;
19535;SDS011;9913;51.168;4.124;2023-08-08T03:56:05;15.60;;;6.23;;
19535;SDS011;9913;51.168;4.124;2023-08-08T03:58:37;12.43;;;5.00;;
19535;SDS011;9913;51.168;4.124;2023-08-08T04:01:05;16.53;;;5.23;;
19535;SDS011;9913;51.168;4.124;2023-08-08T04:03:34;13.97;;;6.23;;
19535;SDS011;9913;51.168;4.124;2023-08-08T04:06:03;13.57;;;5.17;;
19535;SDS011;9913;51.168;4.124;2023-08-08T04:08:32;16.50;;;7.00;;
19535;SDS011;9913;51.168;4.124;2023-08-08T04:11:00;14.90;;;5.53;;
19535;SDS011;9913;51.168;4.124;2023-08-08T04:13:29;12.00;;;5.73;;
19535;SDS011;9913;51.168;4.124;2023-08-08T04:15:59;11.40;;;6.93;;
19535;SDS011;9913;51.168;4.124;2023-08-08T04:18:28;12.00;;;5.23;;
19535;SDS011;9913;51.168;4.124;2023-08-08T04:20:56;16.47;;;6.53;;
19535;SDS011;9913;51.168;4.124;2023-08-08T04:23:24;10.00;;;5.67;;
19535;SDS011;9913;51.168;4.124;2023-08-08T04:25:53;13.93;;;6.03;;
19535;SDS011;9913;51.168;4.124;2023-08-08T04:28:21;12.93;;;6.33;;
19535;SDS011;9913;51.168;4.124;2023-08-08T04:30:50;18.47;;;6.10;;
19535;SDS011;9913;51.168;4.124;2023-08-08T04:33:19;10.13;;;5.00;;
19535;SDS011;9913;51.168;4.124;2023-08-08T04:35:48;11.67;;;5.80;;
19535;SDS011;9913;51.168;4.124;2023-08-08T04:38:16;12.63;;;5.63;;
19535;SDS011;9913;51.168;4.124;2023-08-08T04:40:45;18.67;;;6.40;;
19535;SDS011;9913;51.168;4.124;2023-08-08T04:43:13;13.77;;;5.23;;
19535;SDS011;9913;51.168;4.124;2023-08-08T04:45:41;13.27;;;6.23;;
19535;SDS011;9913;51.168;4.124;2023-08-08T04:48:10;17.60;;;5.60;;
19535;SDS011;9913;51.168;4.124;2023-08-08T04:50:40;18.40;;;6.60;;
19535;SDS011;9913;51.168;4.124;2023-08-08T04:53:08;12.83;;;6.07;;
19535;SDS011;9913;51.168;4.124;2023-08-08T04:55:37;14.23;;;5.77;;
19535;SDS011;9913;51.168;4.124;2023-08-08T04:58:05;13.43;;;5.57;;
19535;SDS011;9913;51.168;4.124;2023-08-08T05:00:34;10.53;;;5.40;;
19535;SDS011;9913;51.168;4.124;2023-08-08T05:03:02;14.40;;;5.10;;
19535;SDS011;9913;51.168;4.124;2023-08-08T05:05:31;10.10;;;4.90;;
19535;SDS011;9913;51.168;4.124;2023-08-08T05:08:01;14.70;;;5.57;;
19535;SDS011;9913;51.168;4.124;2023-08-08T05:10:29;14.40;;;5.77;;
19535;SDS011;9913;51.168;4.124;2023-08-08T05:12:58;8.73;;;4.90;;
19535;SDS011;9913;51.168;4.124;2023-08-08T05:15:26;12.50;;;5.67;;
19535;SDS011;9913;51.168;4.124;2023-08-08T05:17:54;10.03;;;4.90;;
19535;SDS011;9913;51.168;4.124;2023-08-08T05:20:24;13.03;;;6.43;;
19535;SDS011;9913;51.168;4.124;2023-08-08T05:22:52;11.13;;;5.07;;
19535;SDS011;9913;51.168;4.124;2023-08-08T05:25:22;13.00;;;5.87;;
19535;SDS011;9913;51.168;4.124;2023-08-08T05:27:50;14.47;;;6.10;;
19535;SDS011;9913;51.168;4.124;2023-08-08T05:30:20;11.77;;;5.37;;
19535;SDS011;9913;51.168;4.124;2023-08-08T05:32:48;17.30;;;6.67;;
19535;SDS011;9913;51.168;4.124;2023-08-08T05:35:17;10.17;;;5.60;;
19535;SDS011;9913;51.168;4.124;2023-08-08T05:37:45;10.70;;;5.50;;
19535;SDS011;9913;51.168;4.124;2023-08-08T05:40:14;10.93;;;5.83;;
19535;SDS011;9913;51.168;4.124;2023-08-08T05:42:44;13.03;;;5.33;;
19535;SDS011;9913;51.168;4.124;2023-08-08T05:45:12;12.90;;;6.30;;
19535;SDS011;9913;51.168;4.124;2023-08-08T05:47:40;13.77;;;5.50;;
19535;SDS011;9913;51.168;4.124;2023-08-08T05:50:09;11.20;;;5.30;;
19535;SDS011;9913;51.168;4.124;2023-08-08T05:52:37;12.50;;;5.60;;
19535;SDS011;9913;51.168;4.124;2023-08-08T05:55:06;13.70;;;4.70;;
19535;SDS011;9913;51.168;4.124;2023-08-08T05:57:36;14.87;;;5.43;;
19535;SDS011;9913;51.168;4.124;2023-08-08T06:00:06;14.40;;;5.23;;
19535;SDS011;9913;51.168;4.124;2023-08-08T06:02:41;12.80;;;5.10;;
19535;SDS011;9913;51.168;4.124;2023-08-08T06:05:10;13.93;;;5.87;;
19535;SDS011;9913;51.168;4.124;2023-08-08T06:07:39;8.40;;;5.25;;
19535;SDS011;9913;51.168;4.124;2023-08-08T06:10:07;11.20;;;5.05;;
19535;SDS011;9913;51.168;4.124;2023-08-08T06:12:36;12.35;;;4.80;;
19535;SDS011;9913;51.168;4.124;2023-08-08T06:15:07;10.73;;;5.15;;
19535;SDS011;9913;51.168;4.124;2023-08-08T06:17:36;10.10;;;4.85;;
19535;SDS011;9913;51.168;4.124;2023-08-08T06:20:05;16.23;;;5.55;;
19535;SDS011;9913;51.168;4.124;2023-08-08T06:22:36;10.85;;;5.05;;
19535;SDS011;9913;51.168;4.124;2023-08-08T06:25:06;14.50;;;5.28;;
19535;SDS011;9913;51.168;4.124;2023-08-08T06:27:34;9.63;;;4.90;;
19535;SDS011;9913;51.168;4.124;2023-08-08T06:30:04;10.23;;;4.85;;
19535;SDS011;9913;51.168;4.124;2023-08-08T06:32:36;7.13;;;3.63;;
19535;SDS011;9913;51.168;4.124;2023-08-08T06:35:04;8.83;;;4.80;;
19535;SDS011;9913;51.168;4.124;2023-08-08T06:37:36;11.02;;;4.38;;
19535;SDS011;9913;51.168;4.124;2023-08-08T06:40:05;10.25;;;4.35;;
19535;SDS011;9913;51.168;4.124;2023-08-08T06:42:34;10.68;;;4.30;;
19535;SDS011;9913;51.168;4.124;2023-08-08T06:45:03;12.52;;;5.68;;
19535;SDS011;9913;51.168;4.124;2023-08-08T06:47:34;9.93;;;3.85;;
19535;SDS011;9913;51.168;4.124;2023-08-08T06:50:02;7.40;;;4.03;;
19535;SDS011;9913;51.168;4.124;2023-08-08T06:52:31;8.30;;;4.00;;
19535;SDS011;9913;51.168;4.124;2023-08-08T06:55:00;10.32;;;4.32;;
19535;SDS011;9913;51.168;4.124;2023-08-08T06:57:28;13.60;;;4.38;;
19535;SDS011;9913;51.168;4.124;2023-08-08T06:59:58;9.25;;;4.38;;
19535;SDS011;9913;51.168;4.124;2023-08-08T07:02:26;11.95;;;4.50;;
19535;SDS011;9913;51.168;4.124;2023-08-08T07:04:56;9.68;;;5.30;;
19535;SDS011;9913;51.168;4.124;2023-08-08T07:07:25;12.05;;;5.03;;
19535;SDS011;9913;51.168;4.124;2023-08-08T07:09:54;10.57;;;4.22;;
19535;SDS011;9913;51.168;4.124;2023-08-08T07:12:23;11.65;;;5.13;;
19535;SDS011;9913;51.168;4.124;2023-08-08T07:14:52;13.27;;;4.40;;
19535;SDS011;9913;51.168;4.124;2023-08-08T07:17:21;10.73;;;4.07;;
19535;SDS011;9913;51.168;4.124;2023-08-08T07:19:49;7.45;;;3.95;;
19535;SDS011;9913;51.168;4.124;2023-08-08T07:22:19;10.88;;;4.03;;
19535;SDS011;9913;51.168;4.124;2023-08-08T07:24:49;10.73;;;4.63;;
19535;SDS011;9913;51.168;4.124;2023-08-08T07:27:17;7.95;;;4.50;;
19535;SDS011;9913;51.168;4.124;2023-08-08T07:29:45;11.82;;;4.18;;
19535;SDS011;9913;51.168;4.124;2023-08-08T07:32:14;13.32;;;4.45;;
19535;SDS011;9913;51.168;4.124;2023-08-08T07:34:42;15.63;;;5.22;;
19535;SDS011;9913;51.168;4.124;2023-08-08T07:37:11;13.57;;;4.70;;
19535;SDS011;9913;51.168;4.124;2023-08-08T07:39:40;10.50;;;4.50;;
19535;SDS011;9913;51.168;4.124;2023-08-08T07:42:09;11.85;;;4.80;;
19535;SDS011;9913;51.168;4.124;2023-08-08T07:44:37;6.97;;;4.10;;
19535;SDS011;9913;51.168;4.124;2023-08-08T07:47:06;10.35;;;4.25;;
19535;SDS011;9913;51.168;4.124;2023-08-08T07:49:36;8.55;;;4.10;;
19535;SDS011;9913;51.168;4.124;2023-08-08T07:52:05;7.70;;;4.30;;
19535;SDS011;9913;51.168;4.124;2023-08-08T07:54:34;9.70;;;4.43;;
19535;SDS011;9913;51.168;4.124;2023-08-08T07:57:09;10.20;;;3.85;;
19535;SDS011;9913;51.168;4.124;2023-08-08T07:59:38;12.38;;;4.32;;
19535;SDS011;9913;51.168;4.124;2023-08-08T08:02:06;7.65;;;3.97;;
19535;SDS011;9913;51.168;4.124;2023-08-08T08:04:35;8.00;;;3.70;;
19535;SDS011;9913;51.168;4.124;2023-08-08T08:07:04;7.63;;;3.35;;
19535;SDS011;9913;51.168;4.124;2023-08-08T08:09:32;7.40;;;3.72;;
19535;SDS011;9913;51.168;4.124;2023-08-08T08:12:00;9.75;;;4.10;;
19535;SDS011;9913;51.168;4.124;2023-08-08T08:14:30;7.53;;;3.97;;
19535;SDS011;9913;51.168;4.124;2023-08-08T08:16:59;7.25;;;3.58;;
19535;SDS011;9913;51.168;4.124;2023-08-08T08:19:27;8.90;;;3.95;;
19535;SDS011;9913;51.168;4.124;2023-08-08T08:21:55;7.28;;;3.72;;
19535;SDS011;9913;51.168;4.124;2023-08-08T08:24:24;7.95;;;3.85;;
19535;SDS011;9913;51.168;4.124;2023-08-08T08:26:52;10.13;;;3.80;;
19535;SDS011;9913;51.168;4.124;2023-08-08T08:29:21;8.60;;;4.00;;
19535;SDS011;9913;51.168;4.124;2023-08-08T08:31:51;8.60;;;4.15;;
19535;SDS011;9913;51.168;4.124;2023-08-08T08:34:19;7.40;;;3.83;;
19535;SDS011;9913;51.168;4.124;2023-08-08T08:36:47;6.93;;;4.20;;
19535;SDS011;9913;51.168;4.124;2023-08-08T08:39:16;8.32;;;3.65;;
19535;SDS011;9913;51.168;4.124;2023-08-08T08:41:44;7.88;;;3.80;;
19535;SDS011;9913;51.168;4.124;2023-08-08T08:44:16;10.25;;;4.60;;
19535;SDS011;9913;51.168;4.124;2023-08-08T08:46:45;7.57;;;3.78;;
19535;SDS011;9913;51.168;4.124;2023-08-08T08:49:17;9.38;;;4.18;;
19535;SDS011;9913;51.168;4.124;2023-08-08T08:51:49;7.43;;;4.32;;
19535;SDS011;9913;51.168;4.124;2023-08-08T08:54:18;8.15;;;3.88;;
19535;SDS011;9913;51.168;4.124;2023-08-08T08:56:48;8.60;;;3.85;;
19535;SDS011;9913;51.168;4.124;2023-08-08T08:59:17;7.65;;;4.20;;
19535;SDS011;9913;51.168;4.124;2023-08-08T09:01:45;8.30;;;4.47;;
19535;SDS011;9913;51.168;4.124;2023-08-08T09:04:14;8.20;;;4.50;;
19535;SDS011;9913;51.168;4.124;2023-08-08T09:06:48;7.05;;;3.55;;
19535;SDS011;9913;51.168;4.124;2023-08-08T09:09:17;8.48;;;4.10;;
19535;SDS011;9913;51.168;4.124;2023-08-08T09:11:49;7.88;;;3.60;;
19535;SDS011;9913;51.168;4.124;2023-08-08T09:14:21;7.72;;;3.67;;
19535;SDS011;9913;51.168;4.124;2023-08-08T09:16:50;6.63;;;3.30;;
19535;SDS011;9913;51.168;4.124;2023-08-08T09:19:21;6.63;;;3.63;;
19535;SDS011;9913;51.168;4.124;2023-08-08T09:21:51;12.07;;;3.95;;
19535;SDS011;9913;51.168;4.124;2023-08-08T09:24:20;9.02;;;4.20;;
19535;SDS011;9913;51.168;4.124;2023-08-08T09:26:48;8.38;;;3.83;;
19535;SDS011;9913;51.168;4.124;2023-08-08T09:29:17;6.40;;;3.35;;
19535;SDS011;9913;51.168;4.124;2023-08-08T09:31:46;9.00;;;3.47;;
19535;SDS011;9913;51.168;4.124;2023-08-08T09:34:15;5.10;;;3.22;;
19535;SDS011;9913;51.168;4.124;2023-08-08T09:36:44;5.38;;;2.65;;
19535;SDS011;9913;51.168;4.124;2023-08-08T09:39:14;7.35;;;2.97;;
19535;SDS011;9913;51.168;4.124;2023-08-08T09:41:45;5.85;;;2.50;;
19535;SDS011;9913;51.168;4.124;2023-08-08T09:44:14;5.50;;;2.67;;
19535;SDS011;9913;51.168;4.124;2023-08-08T09:46:42;4.68;;;1.90;;
19535;SDS011;9913;51.168;4.124;2023-08-08T09:49:11;4.55;;;2.40;;
19535;SDS011;9913;51.168;4.124;2023-08-08T09:51:40;3.78;;;2.00;;
19535;SDS011;9913;51.168;4.124;2023-08-08T09:54:08;3.70;;;2.20;;
19535;SDS011;9913;51.168;4.124;2023-08-08T09:56:39;3.67;;;1.88;;
19535;SDS011;9913;51.168;4.124;2023-08-08T09:59:08;5.90;;;2.15;;
19535;SDS011;9913;51.168;4.124;2023-08-08T10:01:38;3.90;;;2.08;;
19535;SDS011;9913;51.168;4.124;2023-08-08T10:04:09;4.00;;;2.17;;
19535;SDS011;9913;51.168;4.124;2023-08-08T10:06:39;5.05;;;2.20;;
19535;SDS011;9913;51.168;4.124;2023-08-08T10:09:08;3.80;;;2.00;;
19535;SDS011;9913;51.168;4.124;2023-08-08T10:11:37;2.90;;;2.13;;
19535;SDS011;9913;51.168;4.124;2023-08-08T10:14:09;3.88;;;1.95;;
19535;SDS011;9913;51.168;4.124;2023-08-08T10:16:38;3.35;;;1.73;;
19535;SDS011;9913;51.168;4.124;2023-08-08T10:19:06;6.20;;;2.10;;
19535;SDS011;9913;51.168;4.124;2023-08-08T10:21:35;4.45;;;1.90;;
19535;SDS011;9913;51.168;4.124;2023-08-08T10:24:09;3.08;;;1.55;;
19535;SDS011;9913;51.168;4.124;2023-08-08T10:26:52;3.45;;;1.65;;
19535;SDS011;9913;51.168;4.124;2023-08-08T10:29:21;4.72;;;2.00;;
19535;SDS011;9913;51.168;4.124;2023-08-08T10:31:53;2.33;;;1.40;;
19535;SDS011;9913;51.168;4.124;2023-08-08T10:34:27;3.92;;;2.10;;
19535;SDS011;9913;51.168;4.124;2023-08-08T10:37:04;4.75;;;2.30;;
19535;SDS011;9913;51.168;4.124;2023-08-08T10:39:33;4.38;;;2.00;;
19535;SDS011;9913;51.168;4.124;2023-08-08T10:42:04;3.85;;;2.00;;
19535;SDS011;9913;51.168;4.124;2023-08-08T10:44:40;4.10;;;2.05;;
19535;SDS011;9913;51.168;4.124;2023-08-08T10:47:10;3.75;;;1.95;;
19535;SDS011;9913;51.168;4.124;2023-08-08T10:49:41;3.80;;;1.80;;
19535;SDS011;9913;51.168;4.124;2023-08-08T10:52:13;3.83;;;1.98;;
19535;SDS011;9913;51.168;4.124;2023-08-08T10:54:51;2.42;;;2.00;;
19535;SDS011;9913;51.168;4.124;2023-08-08T10:57:23;4.40;;;2.25;;
19535;SDS011;9913;51.168;4.124;2023-08-08T10:59:53;6.57;;;2.38;;
19535;SDS011;9913;51.168;4.124;2023-08-08T11:02:21;3.83;;;2.05;;
19535;SDS011;9913;51.168;4.124;2023-08-08T11:04:50;4.40;;;2.00;;
19535;SDS011;9913;51.168;4.124;2023-08-08T11:07:19;3.25;;;1.80;;
19535;SDS011;9913;51.168;4.124;2023-08-08T11:09:48;3.33;;;2.20;;
19535;SDS011;9913;51.168;4.124;2023-08-08T11:12:16;5.28;;;2.70;;
19535;SDS011;9913;51.168;4.124;2023-08-08T11:14:46;3.30;;;1.92;;
19535;SDS011;9913;51.168;4.124;2023-08-08T11:17:15;4.53;;;2.40;;
19535;SDS011;9913;51.168;4.124;2023-08-08T11:19:43;5.25;;;2.40;;
19535;SDS011;9913;51.168;4.124;2023-08-08T11:22:11;4.80;;;2.53;;
19535;SDS011;9913;51.168;4.124;2023-08-08T11:24:40;4.75;;;2.70;;
19535;SDS011;9913;51.168;4.124;2023-08-08T11:27:08;3.65;;;2.53;;
19535;SDS011;9913;51.168;4.124;2023-08-08T11:29:37;3.85;;;1.95;;
19535;SDS011;9913;51.168;4.124;2023-08-08T11:32:07;4.20;;;2.30;;
19535;SDS011;9913;51.168;4.124;2023-08-08T11:34:36;5.95;;;2.50;;
19535;SDS011;9913;51.168;4.124;2023-08-08T11:37:05;4.30;;;2.25;;
19535;SDS011;9913;51.168;4.124;2023-08-08T11:39:33;3.42;;;2.28;;
19535;SDS011;9913;51.168;4.124;2023-08-08T11:42:02;4.35;;;2.40;;
19535;SDS011;9913;51.168;4.124;2023-08-08T11:44:32;4.72;;;2.20;;
19535;SDS011;9913;51.168;4.124;2023-08-08T11:47:01;3.72;;;2.78;;
19535;SDS011;9913;51.168;4.124;2023-08-08T11:49:39;3.83;;;2.72;;
19535;SDS011;9913;51.168;4.124;2023-08-08T11:52:08;4.70;;;2.45;;
19535;SDS011;9913;51.168;4.124;2023-08-08T11:54:37;3.50;;;2.58;;
19535;SDS011;9913;51.168;4.124;2023-08-08T11:57:05;4.30;;;2.88;;
19535;SDS011;9913;51.168;4.124;2023-08-08T11:59:35;4.10;;;2.42;;
19535;SDS011;9913;51.168;4.124;2023-08-08T12:02:03;4.03;;;2.72;;
19535;SDS011;9913;51.168;4.124;2023-08-08T12:04:32;3.60;;;2.78;;
19535;SDS011;9913;51.168;4.124;2023-08-08T12:07:02;6.70;;;2.97;;
19535;SDS011;9913;51.168;4.124;2023-08-08T12:09:32;5.57;;;3.30;;
19535;SDS011;9913;51.168;4.124;2023-08-08T12:12:00;4.90;;;2.80;;
19535;SDS011;9913;51.168;4.124;2023-08-08T12:14:30;4.45;;;2.85;;
19535;SDS011;9913;51.168;4.124;2023-08-08T12:17:22;4.47;;;3.03;;
19535;SDS011;9913;51.168;4.124;2023-08-08T12:19:51;5.03;;;3.25;;
19535;SDS011;9913;51.168;4.124;2023-08-08T12:22:20;5.70;;;3.33;;
19535;SDS011;9913;51.168;4.124;2023-08-08T12:24:49;3.70;;;3.33;;
19535;SDS011;9913;51.168;4.124;2023-08-08T12:27:17;3.38;;;2.38;;
19535;SDS011;9913;51.168;4.124;2023-08-08T12:29:46;3.20;;;2.40;;
19535;SDS011;9913;51.168;4.124;2023-08-08T12:32:14;4.10;;;2.45;;
19535;SDS011;9913;51.168;4.124;2023-08-08T12:34:42;4.03;;;2.45;;
19535;SDS011;9913;51.168;4.124;2023-08-08T12:37:11;5.45;;;2.70;;
19535;SDS011;9913;51.168;4.124;2023-08-08T12:39:40;3.55;;;2.75;;
19535;SDS011;9913;51.168;4.124;2023-08-08T12:42:09;3.20;;;2.50;;
19535;SDS011;9913;51.168;4.124;2023-08-08T12:44:38;6.35;;;2.60;;
19535;SDS011;9913;51.168;4.124;2023-08-08T12:47:06;4.40;;;2.50;;
19535;SDS011;9913;51.168;4.124;2023-08-08T12:49:35;3.35;;;2.20;;
19535;SDS011;9913;51.168;4.124;2023-08-08T12:52:04;3.67;;;2.53;;
19535;SDS011;9913;51.168;4.124;2023-08-08T12:54:33;3.40;;;1.70;;
19535;SDS011;9913;51.168;4.124;2023-08-08T12:57:04;3.75;;;2.33;;
19535;SDS011;9913;51.168;4.124;2023-08-08T12:59:32;2.03;;;1.60;;
19535;SDS011;9913;51.168;4.124;2023-08-08T13:02:01;2.55;;;1.35;;
19535;SDS011;9913;51.168;4.124;2023-08-08T13:04:30;2.55;;;1.45;;
19535;SDS011;9913;51.168;4.124;2023-08-08T13:06:58;3.33;;;1.40;;
19535;SDS011;9913;51.168;4.124;2023-08-08T13:09:26;2.00;;;1.15;;
19535;SDS011;9913;51.168;4.124;2023-08-08T13:11:55;2.47;;;1.58;;
19535;SDS011;9913;51.168;4.124;2023-08-08T13:14:24;2.08;;;1.40;;
19535;SDS011;9913;51.168;4.124;2023-08-08T13:16:53;2.25;;;1.45;;
19535;SDS011;9913;51.168;4.124;2023-08-08T13:19:21;2.80;;;1.50;;
19535;SDS011;9913;51.168;4.124;2023-08-08T13:21:51;4.60;;;1.80;;
19535;SDS011;9913;51.168;4.124;2023-08-08T13:24:20;3.60;;;1.40;;
19535;SDS011;9913;51.168;4.124;2023-08-08T13:26:49;1.60;;;1.50;;
19535;SDS011;9913;51.168;4.124;2023-08-08T13:29:18;2.92;;;1.55;;
19535;SDS011;9913;51.168;4.124;2023-08-08T13:31:47;1.80;;;1.30;;
19535;SDS011;9913;51.168;4.124;2023-08-08T13:34:16;4.03;;;1.77;;
19535;SDS011;9913;51.168;4.124;2023-08-08T13:36:44;2.70;;;1.63;;
19535;SDS011;9913;51.168;4.124;2023-08-08T13:39:12;3.28;;;1.35;;
19535;SDS011;9913;51.168;4.124;2023-08-08T13:41:41;2.13;;;1.60;;
19535;SDS011;9913;51.168;4.124;2023-08-08T13:44:10;1.35;;;1.10;;
19535;SDS011;9913;51.168;4.124;2023-08-08T13:46:38;2.30;;;1.40;;
19535;SDS011;9913;51.168;4.124;2023-08-08T13:49:08;3.30;;;1.58;;
19535;SDS011;9913;51.168;4.124;2023-08-08T13:51:37;4.50;;;1.38;;
19535;SDS011;9913;51.168;4.124;2023-08-08T13:54:06;3.78;;;1.40;;
19535;SDS011;9913;51.168;4.124;2023-08-08T13:56:35;4.35;;;1.73;;
19535;SDS011;9913;51.168;4.124;2023-08-08T13:59:03;2.13;;;1.50;;
19535;SDS011;9913;51.168;4.124;2023-08-08T14:01:31;2.47;;;1.55;;
19535;SDS011;9913;51.168;4.124;2023-08-08T14:04:00;2.35;;;1.50;;
19535;SDS011;9913;51.168;4.124;2023-08-08T14:06:30;2.90;;;1.80;;
19535;SDS011;9913;51.168;4.124;2023-08-08T14:08:58;3.33;;;1.77;;
19535;SDS011;9913;51.168;4.124;2023-08-08T14:11:27;1.90;;;1.40;;
19535;SDS011;9913;51.168;4.124;2023-08-08T14:13:55;3.20;;;1.67;;
19535;SDS011;9913;51.168;4.124;2023-08-08T14:16:23;2.53;;;1.45;;
19535;SDS011;9913;51.168;4.124;2023-08-08T14:18:52;1.70;;;1.40;;
19535;SDS011;9913;51.168;4.124;2023-08-08T14:21:20;2.70;;;1.50;;
19535;SDS011;9913;51.168;4.124;2023-08-08T14:23:50;2.33;;;1.33;;
19535;SDS011;9913;51.168;4.124;2023-08-08T14:26:18;1.80;;;1.20;;
19535;SDS011;9913;51.168;4.124;2023-08-08T14:28:46;3.65;;;1.63;;
19535;SDS011;9913;51.168;4.124;2023-08-08T14:31:15;3.00;;;1.20;;
19535;SDS011;9913;51.168;4.124;2023-08-08T14:33:43;2.33;;;1.80;;
19535;SDS011;9913;51.168;4.124;2023-08-08T14:36:12;2.10;;;1.70;;
19535;SDS011;9913;51.168;4.124;2023-08-08T14:38:40;2.90;;;1.50;;
19535;SDS011;9913;51.168;4.124;2023-08-08T14:41:10;2.67;;;1.38;;
19535;SDS011;9913;51.168;4.124;2023-08-08T14:43:38;3.03;;;1.50;;
19535;SDS011;9913;51.168;4.124;2023-08-08T14:46:07;3.75;;;1.60;;
19535;SDS011;9913;51.168;4.124;2023-08-08T14:48:35;2.33;;;1.55;;
19535;SDS011;9913;51.168;4.124;2023-08-08T14:51:04;3.38;;;1.30;;
19535;SDS011;9913;51.168;4.124;2023-08-08T14:53:32;2.53;;;1.52;;
19535;SDS011;9913;51.168;4.124;2023-08-08T14:56:00;2.17;;;1.38;;
19535;SDS011;9913;51.168;4.124;2023-08-08T14:58:30;4.07;;;1.77;;
19535;SDS011;9913;51.168;4.124;2023-08-08T15:01:00;2.88;;;1.70;;
19535;SDS011;9913;51.168;4.124;2023-08-08T15:03:29;2.90;;;1.60;;
19535;SDS011;9913;51.168;4.124;2023-08-08T15:05:58;3.50;;;1.70;;
19535;SDS011;9913;51.168;4.124;2023-08-08T15:08:26;4.55;;;2.88;;